createdAt,value
2018-09-08T00:01:21.318Z,98361.38
2018-09-08T00:03:50.720Z,98365.02
2018-09-08T00:06:25.425Z,98358.29
2018-09-08T00:08:54.796Z,98357.45
2018-09-08T00:11:24.230Z,98362.21
2018-09-08T00:13:53.801Z,98359.84
2018-09-08T00:16:28.490Z,98360.10
2018-09-08T00:19:03.139Z,98363.08
2018-09-08T00:21:37.866Z,98367.47
2018-09-08T00:24:12.494Z,98361.86
2018-09-08T00:33:46.557Z,98367.76
2018-09-08T00:36:16.166Z,98374.56
2018-09-08T00:38:45.636Z,98379.73
2018-09-08T00:41:14.998Z,98376.28
2018-09-08T00:43:44.421Z,98373.69
2018-09-08T00:46:13.797Z,98369.39
2018-09-08T00:48:43.230Z,98363.46
2018-09-08T00:51:12.590Z,98366.69
2018-09-08T00:53:42.029Z,98371.70
2018-09-08T00:56:11.411Z,98371.34
2018-09-08T00:58:44.899Z,98373.05
2018-09-08T01:01:14.662Z,98373.85
2018-09-08T01:03:44.064Z,98373.77
2018-09-08T01:06:13.449Z,98385.36
2018-09-08T01:08:42.794Z,98375.08
2018-09-08T01:11:12.249Z,98377.15
2018-09-08T01:13:41.679Z,98380.92
2018-09-08T01:16:11.037Z,98380.17
2018-09-08T01:18:40.457Z,98380.30
2018-09-08T01:21:10.118Z,98382.02
2018-09-08T01:23:39.598Z,98384.16
2018-09-08T01:26:08.965Z,98393.74
2018-09-08T01:28:38.378Z,98388.90
2018-09-08T01:31:07.738Z,98387.06
2018-09-08T01:33:37.165Z,98385.27
2018-09-08T01:36:06.538Z,98381.41
2018-09-08T01:38:36.014Z,98375.91
2018-09-08T01:41:05.373Z,98383.47
2018-09-08T01:43:34.792Z,98380.92
2018-09-08T01:46:04.393Z,98377.55
2018-09-08T01:48:33.805Z,98383.92
2018-09-08T01:51:03.313Z,98386.55
2018-09-08T01:53:32.790Z,98389.26
2018-09-08T01:56:02.183Z,98390.39
2018-09-08T01:58:31.769Z,98396.36
2018-09-08T02:01:01.181Z,98393.85
2018-09-08T02:03:30.526Z,98397.16
2018-09-08T02:05:59.948Z,98401.42
2018-09-08T02:08:29.325Z,98405.57
2018-09-08T02:10:58.729Z,98403.02
2018-09-08T02:13:28.078Z,98405.97
2018-09-08T02:15:57.442Z,98407.64
2018-09-08T02:18:26.934Z,98411.02
2018-09-08T02:20:56.296Z,98409.45
2018-09-08T02:23:25.746Z,98412.00
2018-09-08T02:25:55.114Z,98413.34
2018-09-08T02:28:24.530Z,98416.77
2018-09-08T02:30:53.905Z,98409.93
2018-09-08T02:33:23.371Z,98407.28
2018-09-08T02:35:52.745Z,98414.52
2018-09-08T02:38:22.161Z,98412.88
2018-09-08T02:40:51.526Z,98415.36
2018-09-08T02:43:21.125Z,98406.88
2018-09-08T02:45:50.485Z,98411.53
2018-09-08T02:48:19.875Z,98414.95
2018-09-08T02:50:47.638Z,98413.72
2018-09-08T02:53:15.546Z,98414.45
2018-09-08T02:55:43.297Z,98411.94
2018-09-08T02:58:11.063Z,98416.12
2018-09-08T03:00:38.805Z,98411.50
2018-09-08T03:03:06.575Z,98415.28
2018-09-08T03:05:34.318Z,98414.48
2018-09-08T03:08:02.078Z,98406.00
2018-09-08T03:10:29.823Z,98412.00
2018-09-08T03:12:57.582Z,98410.30
2018-09-08T03:15:25.330Z,98414.52
2018-09-08T03:17:53.098Z,98413.58
2018-09-08T03:20:20.849Z,98414.84
2018-09-08T03:22:48.618Z,98415.21
2018-09-08T03:25:16.367Z,98421.18
2018-09-08T03:27:44.121Z,98416.08
2018-09-08T03:30:11.873Z,98423.33
2018-09-08T03:32:39.626Z,98418.94
2018-09-08T03:35:07.375Z,98416.30
2018-09-08T03:37:35.137Z,98425.21
2018-09-08T03:40:02.885Z,98428.22
2018-09-08T03:42:30.641Z,98430.73
2018-09-08T03:44:58.394Z,98418.81
2018-09-08T03:47:26.155Z,98426.05
2018-09-08T03:49:53.901Z,98424.84
2018-09-08T03:52:21.685Z,98422.30
2018-09-08T03:54:49.422Z,98424.07
2018-09-08T03:57:17.221Z,98418.58
2018-09-08T03:59:44.978Z,98422.48
2018-09-08T04:02:12.717Z,98424.66
2018-09-08T04:04:42.109Z,98427.61
2018-09-08T04:07:11.495Z,98428.04
2018-09-08T04:09:40.854Z,98439.60
2018-09-08T04:12:10.297Z,98439.69
2018-09-08T04:14:39.649Z,98443.88
2018-09-08T04:17:09.090Z,98444.66
2018-09-08T04:19:38.458Z,98448.05
2018-09-08T04:22:07.950Z,98449.30
2018-09-08T04:24:37.318Z,98451.82
2018-09-08T04:27:06.813Z,98456.91
2018-09-08T04:29:36.243Z,98462.84
2018-09-08T04:32:05.595Z,98462.41
2018-09-08T04:34:34.968Z,98461.13
2018-09-08T04:37:04.409Z,98458.56
2018-09-08T04:39:33.778Z,98465.30
2018-09-08T04:42:03.230Z,98468.30
2018-09-08T04:44:32.606Z,98463.19
2018-09-08T04:47:01.946Z,98459.80
2018-09-08T04:49:31.357Z,98459.40
2018-09-08T04:52:00.735Z,98467.47
2018-09-08T04:54:30.118Z,98469.55
2018-09-08T04:56:59.555Z,98471.72
2018-09-08T04:59:28.922Z,98475.15
2018-09-08T05:01:58.387Z,98473.42
2018-09-08T05:04:27.742Z,98476.41
2018-09-08T05:06:57.139Z,98470.02
2018-09-08T05:09:26.518Z,98476.40
2018-09-08T05:11:55.942Z,98479.81
2018-09-08T05:14:25.294Z,98484.48
2018-09-08T05:16:54.642Z,98484.02
2018-09-08T05:19:24.068Z,98483.12
2018-09-08T05:21:53.427Z,98483.17
2018-09-08T05:24:22.775Z,98489.48
2018-09-08T05:26:52.133Z,98487.86
2018-09-08T05:29:21.569Z,98493.38
2018-09-08T05:31:50.941Z,98491.70
2018-09-08T05:34:20.362Z,98504.09
2018-09-08T05:36:49.718Z,98496.76
2018-09-08T05:39:19.169Z,98502.27
2018-09-08T05:41:48.536Z,98504.84
2018-09-08T05:44:18.009Z,98507.30
2018-09-08T05:46:47.355Z,98509.42
2018-09-08T05:49:16.714Z,98513.67
2018-09-08T05:51:46.075Z,98515.37
2018-09-08T05:54:15.503Z,98515.78
2018-09-08T05:56:44.893Z,98517.45
2018-09-08T05:59:14.306Z,98525.61
2018-09-08T06:01:43.654Z,98523.45
2018-09-08T06:04:13.012Z,98526.88
2018-09-08T06:06:42.385Z,98528.08
2018-09-08T06:09:11.754Z,98529.33
2018-09-08T06:11:41.234Z,98534.36
2018-09-08T06:14:10.570Z,98531.77
2018-09-08T06:16:39.930Z,98535.58
2018-09-08T06:19:09.334Z,98529.56
2018-09-08T06:21:38.691Z,98532.89
2018-09-08T06:24:08.132Z,98534.19
2018-09-08T06:26:37.506Z,98534.25
2018-09-08T06:29:06.927Z,98537.17
2018-09-08T06:31:36.286Z,98537.58
2018-09-08T06:34:05.748Z,98540.67
2018-09-08T06:36:35.106Z,98542.70
2018-09-08T06:39:06.181Z,98541.92
2018-09-08T06:41:35.535Z,98543.59
2018-09-08T06:44:04.973Z,98540.67
2018-09-08T06:46:34.422Z,98544.95
2018-09-08T06:49:04.447Z,98547.91
2018-09-08T06:51:34.356Z,98548.31
2018-09-08T06:54:03.986Z,98551.64
2018-09-08T06:56:33.347Z,98548.42
2018-09-08T06:59:02.886Z,98553.92
2018-09-08T07:01:32.254Z,98554.52
2018-09-08T07:04:01.611Z,98551.06
2018-09-08T07:06:31.033Z,98552.58
2018-09-08T07:09:00.407Z,98552.91
2018-09-08T07:11:29.851Z,98551.47
2018-09-08T07:13:59.222Z,98551.67
2018-09-08T07:16:28.590Z,98550.31
2018-09-08T07:18:58.054Z,98550.71
2018-09-08T07:21:27.402Z,98555.77
2018-09-08T07:23:56.838Z,98550.50
2018-09-08T07:26:26.194Z,98551.06
2018-09-08T07:28:55.648Z,98551.81
2018-09-08T07:31:25.030Z,98547.23
2018-09-08T07:33:54.455Z,98547.59
2018-09-08T07:36:23.827Z,98545.61
2018-09-08T07:38:53.260Z,98551.06
2018-09-08T07:41:22.610Z,98555.58
2018-09-08T07:43:52.067Z,98560.36
2018-09-08T07:46:21.498Z,98560.25
2018-09-08T07:48:50.858Z,98566.88
2018-09-08T07:51:20.217Z,98563.24
2018-09-08T07:53:49.773Z,98565.95
2018-09-08T07:56:19.130Z,98567.13
2018-09-08T07:58:48.618Z,98572.13
2018-09-08T08:01:17.977Z,98574.34
2018-09-08T08:03:47.335Z,98571.30
2018-09-08T08:06:16.811Z,98574.48
2018-09-08T08:08:46.182Z,98578.80
2018-09-08T08:11:15.642Z,98574.30
2018-09-08T08:13:45.011Z,98577.19
2018-09-08T08:16:14.412Z,98576.88
2018-09-08T08:18:43.814Z,98578.65
2018-09-08T08:21:13.181Z,98580.95
2018-09-08T08:23:42.609Z,98580.89
2018-09-08T08:26:12.007Z,98578.34
2018-09-08T08:28:41.421Z,98577.89
2018-09-08T08:31:10.856Z,98572.11
2018-09-08T08:33:40.229Z,98581.00
2018-09-08T08:36:09.726Z,98570.51
2018-09-08T08:38:39.128Z,98571.00
2018-09-08T08:41:08.506Z,98572.78
2018-09-08T08:43:38.083Z,98571.05
2018-09-08T08:46:07.470Z,98567.73
2018-09-08T08:48:36.938Z,98564.52
2018-09-08T08:51:23.284Z,98559.80
2018-09-08T08:54:09.957Z,98568.81
2018-09-08T08:56:39.330Z,98572.71
2018-09-08T08:59:08.760Z,98571.74
2018-09-08T09:01:38.311Z,98567.74
2018-09-08T09:04:07.970Z,98577.94
2018-09-08T09:06:37.834Z,98569.25
2018-09-08T09:09:14.394Z,98567.59
2018-09-08T09:11:44.931Z,98562.27
2018-09-08T09:14:14.631Z,98560.77
2018-09-08T09:16:43.998Z,98556.85
2018-09-08T09:19:40.506Z,98567.09
2018-09-08T09:22:28.214Z,98554.59
2018-09-08T09:25:07.316Z,98549.00
2018-09-08T09:27:38.183Z,98548.50
2018-09-08T09:30:09.078Z,98554.14
2018-09-08T09:32:38.459Z,98552.01
2018-09-08T09:35:13.654Z,98551.70
2018-09-08T09:37:43.257Z,98548.70
2018-09-08T09:40:13.566Z,98549.89
2018-09-08T09:42:42.953Z,98545.38
2018-09-08T09:45:12.586Z,98545.53
2018-09-08T09:47:41.961Z,98541.10
2018-09-08T09:50:12.368Z,98542.17
2018-09-08T09:52:42.140Z,98545.55
2018-09-08T09:55:11.485Z,98542.31
2018-09-08T09:57:40.897Z,98546.36
2018-09-08T10:00:14.696Z,98549.39
2018-09-08T10:02:49.558Z,98538.28
2018-09-08T10:05:26.385Z,98540.41
2018-09-08T10:07:55.854Z,98530.98
2018-09-08T10:10:26.767Z,98530.42
2018-09-08T10:12:56.128Z,98538.75
2018-09-08T10:15:25.565Z,98531.06
2018-09-08T10:17:54.939Z,98534.36
2018-09-08T10:20:24.824Z,98531.72
2018-09-08T10:22:54.241Z,98522.19
2018-09-08T10:25:23.656Z,98518.45
2018-09-08T10:27:53.087Z,98521.66
2018-09-08T10:30:22.527Z,98519.80
2018-09-08T10:32:51.886Z,98525.04
2018-09-08T10:35:21.275Z,98526.05
2018-09-08T10:37:50.639Z,98520.45
2018-09-08T10:40:20.049Z,98520.55
2018-09-08T10:42:49.502Z,98510.45
2018-09-08T10:45:18.877Z,98507.65
2018-09-08T10:47:48.317Z,98500.32
2018-09-08T10:50:17.687Z,98511.91
2018-09-08T10:52:48.370Z,98519.31
2018-09-08T10:55:17.838Z,98513.91
2018-09-08T10:57:47.191Z,98514.14
2018-09-08T11:00:16.993Z,98519.23
2018-09-08T11:02:46.504Z,98510.80
2018-09-08T11:05:15.735Z,98506.36
2018-09-08T11:07:45.099Z,98498.58
2018-09-08T11:10:14.539Z,98495.75
2018-09-08T11:12:43.890Z,98490.02
2018-09-08T11:15:13.270Z,98498.15
2018-09-08T11:17:42.772Z,98501.70
2018-09-08T11:20:12.165Z,98500.92
2018-09-08T11:22:41.558Z,98503.98
2018-09-08T11:25:10.910Z,98501.30
2018-09-08T11:27:40.365Z,98494.02
2018-09-08T11:30:09.767Z,98486.53
2018-09-08T11:32:39.184Z,98490.22
2018-09-08T11:35:08.581Z,98491.37
2018-09-08T11:37:38.119Z,98487.44
2018-09-08T11:40:07.514Z,98485.19
2018-09-08T11:42:37.017Z,98486.49
2018-09-08T11:45:06.387Z,98483.91
2018-09-08T11:47:35.811Z,98480.06
2018-09-08T11:50:05.404Z,98479.55
2018-09-08T11:52:34.759Z,98479.08
2018-09-08T11:55:04.124Z,98473.09
2018-09-08T11:57:33.507Z,98470.69
2018-09-08T12:00:02.910Z,98471.66
2018-09-08T12:02:32.279Z,98463.76
2018-09-08T12:05:01.731Z,98467.97
2018-09-08T12:07:31.093Z,98470.95
2018-09-08T12:10:00.519Z,98459.92
2018-09-08T12:12:29.876Z,98459.51
2018-09-08T12:14:59.301Z,98473.48
2018-09-08T12:17:28.740Z,98464.89
2018-09-08T12:19:58.099Z,98461.39
2018-09-08T12:22:27.532Z,98452.45
2018-09-08T12:24:56.905Z,98441.61
2018-09-08T12:27:26.346Z,98452.70
2018-09-08T12:29:55.699Z,98435.67
2018-09-08T12:32:25.198Z,98439.98
2018-09-08T12:34:54.663Z,98440.98
2018-09-08T12:37:24.071Z,98444.12
2018-09-08T12:39:53.452Z,98429.08
2018-09-08T12:42:22.864Z,98433.83
2018-09-08T12:44:52.231Z,98442.33
2018-09-08T12:47:21.676Z,98443.09
2018-09-08T12:49:51.093Z,98436.20
2018-09-08T12:52:20.556Z,98436.51
2018-09-08T12:54:50.316Z,98435.50
2018-09-08T12:57:19.786Z,98441.67
2018-09-08T12:59:49.114Z,98431.39
2018-09-08T13:02:18.539Z,98429.83
2018-09-08T13:04:48.008Z,98443.48
2018-09-08T13:07:17.401Z,98439.52
2018-09-08T13:09:46.781Z,98437.02
2018-09-08T13:12:16.258Z,98434.25
2018-09-08T13:14:45.636Z,98437.65
2018-09-08T13:17:14.978Z,98432.75
2018-09-08T13:19:44.753Z,98445.38
2018-09-08T13:22:14.113Z,98431.48
2018-09-08T13:24:43.670Z,98432.38
2018-09-08T13:27:13.042Z,98428.83
2018-09-08T13:29:42.431Z,98423.53
2018-09-08T13:32:11.843Z,98424.03
2018-09-08T13:34:41.265Z,98414.42
2018-09-08T13:37:10.642Z,98420.11
2018-09-08T13:39:40.109Z,98418.59
2018-09-08T13:42:09.430Z,98410.19
2018-09-08T13:44:38.830Z,98406.03
2018-09-08T13:47:08.284Z,98410.27
2018-09-08T13:49:37.666Z,98413.58
2018-09-08T13:52:07.246Z,98409.36
2018-09-08T13:54:36.648Z,98417.34
2018-09-08T13:57:06.225Z,98395.23
2018-09-08T13:59:35.806Z,98395.34
2018-09-08T14:02:05.147Z,98393.08
2018-09-08T14:04:34.503Z,98393.48
2018-09-08T14:07:03.986Z,98399.87
2018-09-08T14:09:33.413Z,98397.72
2018-09-08T14:12:02.803Z,98394.52
2018-09-08T14:14:32.193Z,98399.14
2018-09-08T14:17:01.571Z,98397.97
2018-09-08T14:19:31.024Z,98390.56
2018-09-08T14:22:00.562Z,98394.17
2018-09-08T14:24:29.999Z,98389.53
2018-09-08T14:26:59.371Z,98399.39
2018-09-08T14:29:28.829Z,98382.97
2018-09-08T14:31:58.211Z,98386.86
2018-09-08T14:34:27.611Z,98381.97
2018-09-08T14:36:56.992Z,98383.30
2018-09-08T14:39:26.443Z,98370.90
2018-09-08T14:41:55.813Z,98368.02
2018-09-08T14:44:25.243Z,98371.44
2018-09-08T14:46:54.609Z,98374.00
2018-09-08T14:49:24.045Z,98374.53
2018-09-08T14:51:53.402Z,98377.92
2018-09-08T14:54:22.851Z,98374.81
2018-09-08T14:56:52.298Z,98375.95
2018-09-08T14:59:21.661Z,98373.62
2018-09-08T15:01:51.034Z,98378.45
2018-09-08T15:04:20.400Z,98384.48
2018-09-08T15:06:49.847Z,98389.55
2018-09-08T15:09:19.210Z,98387.52
2018-09-08T15:11:48.667Z,98376.63
2018-09-08T15:14:18.027Z,98382.64
2018-09-08T15:16:47.465Z,98379.97
2018-09-08T15:19:16.859Z,98381.69
2018-09-08T15:21:46.231Z,98379.68
2018-09-08T15:24:15.667Z,98381.95
2018-09-08T15:26:45.120Z,98381.69
2018-09-08T15:29:14.581Z,98381.78
2018-09-08T15:31:43.947Z,98380.66
2018-09-08T15:34:13.527Z,98372.13
2018-09-08T15:36:42.907Z,98372.27
2018-09-08T15:39:12.309Z,98373.20
2018-09-08T15:41:41.665Z,98374.21
2018-09-08T15:44:11.255Z,98371.89
2018-09-08T15:46:41.053Z,98377.19
2018-09-08T15:49:10.527Z,98381.19
2018-09-08T15:51:39.913Z,98383.67
2018-09-08T15:54:09.299Z,98390.92
2018-09-08T15:56:38.663Z,98392.61
2018-09-08T15:59:08.137Z,98399.07
2018-09-08T16:01:37.491Z,98395.42
2018-09-08T16:04:06.868Z,98391.97
2018-09-08T16:06:36.332Z,98394.29
2018-09-08T16:09:07.260Z,98386.35
2018-09-08T16:11:36.684Z,98383.17
2018-09-08T16:14:06.084Z,98386.16
2018-09-08T16:16:35.451Z,98383.89
2018-09-08T16:19:04.896Z,98381.02
2018-09-08T16:21:34.263Z,98383.34
2018-09-08T16:24:03.698Z,98376.97
2018-09-08T16:26:33.056Z,98373.20
2018-09-08T16:29:02.422Z,98378.41
2018-09-08T16:31:31.778Z,98381.08
2018-09-08T16:34:01.204Z,98381.42
2018-09-08T16:36:30.571Z,98388.30
2018-09-08T16:39:00.019Z,98390.11
2018-09-08T16:41:29.399Z,98391.02
2018-09-08T16:43:58.873Z,98386.19
2018-09-08T16:46:28.189Z,98381.00
2018-09-08T16:48:57.602Z,98385.17
2018-09-08T16:51:26.965Z,98388.11
2018-09-08T16:53:56.446Z,98389.12
2018-09-08T16:56:25.801Z,98393.34
2018-09-08T16:58:55.228Z,98390.56
2018-09-08T17:01:24.866Z,98392.02
2018-09-08T17:03:54.228Z,98388.91
2018-09-08T17:06:23.645Z,98386.24
2018-09-08T17:08:53.003Z,98387.29
2018-09-08T17:11:22.498Z,98382.45
2018-09-08T17:13:51.897Z,98381.91
2018-09-08T17:16:21.235Z,98384.56
2018-09-08T17:18:50.616Z,98381.59
2018-09-08T17:21:19.978Z,98381.72
2018-09-08T17:23:49.351Z,98381.64
2018-09-08T17:26:18.696Z,98389.09
2018-09-08T17:28:48.163Z,98388.42
2018-09-08T17:31:17.517Z,98386.47
2018-09-08T17:33:46.947Z,98391.41
2018-09-08T17:36:16.298Z,98388.15
2018-09-08T17:38:45.837Z,98392.22
2018-09-08T17:41:15.184Z,98394.05
2018-09-08T17:43:44.567Z,98392.19
2018-09-08T17:46:13.940Z,98391.88
2018-09-08T17:48:43.375Z,98394.03
2018-09-08T17:51:12.734Z,98395.75
2018-09-08T17:53:42.182Z,98403.21
2018-09-08T17:56:11.543Z,98401.02
2018-09-08T17:58:41.012Z,98400.75
2018-09-08T18:01:10.371Z,98397.73
2018-09-08T18:03:39.793Z,98401.16
2018-09-08T18:06:09.215Z,98407.44
2018-09-08T18:08:38.592Z,98408.73
2018-09-08T18:11:08.012Z,98408.86
2018-09-08T18:13:37.375Z,98402.39
2018-09-08T18:16:06.727Z,98414.97
2018-09-08T18:18:36.113Z,98416.85
2018-09-08T18:21:05.468Z,98417.79
2018-09-08T18:23:34.948Z,98422.20
2018-09-08T18:26:04.320Z,98422.51
2018-09-08T18:28:33.723Z,98424.27
2018-09-08T18:31:03.099Z,98430.92
2018-09-08T18:33:32.546Z,98430.39
2018-09-08T18:36:02.391Z,98432.95
2018-09-08T18:38:31.844Z,98441.64
2018-09-08T18:41:01.204Z,98443.11
2018-09-08T18:43:30.590Z,98439.25
2018-09-08T18:46:00.046Z,98451.95
2018-09-08T18:48:29.425Z,98460.63
2018-09-08T18:50:58.874Z,98459.47
2018-09-08T18:53:28.233Z,98465.57
2018-09-08T18:55:57.670Z,98464.37
2018-09-08T18:58:27.154Z,98470.31
2018-09-08T19:00:56.510Z,98472.93
2018-09-08T19:03:25.875Z,98465.28
2018-09-08T19:05:55.260Z,98467.61
2018-09-08T19:08:28.706Z,98465.66
2018-09-08T19:10:58.161Z,98460.47
2018-09-08T19:13:27.505Z,98461.87
2018-09-08T19:15:57.000Z,98462.52
2018-09-08T19:18:26.366Z,98464.87
2018-09-08T19:20:55.766Z,98462.70
2018-09-08T19:23:25.131Z,98459.41
2018-09-08T19:25:54.620Z,98460.08
2018-09-08T19:28:23.968Z,98460.03
2018-09-08T19:30:53.400Z,98456.27
2018-09-08T19:33:22.837Z,98454.16
2018-09-08T19:35:52.166Z,98454.03
2018-09-08T19:38:21.600Z,98450.98
2018-09-08T19:40:50.953Z,98450.15
2018-09-08T19:43:20.311Z,98453.43
2018-09-08T19:45:49.696Z,98451.70
2018-09-08T19:48:20.475Z,98450.75
2018-09-08T19:50:49.954Z,98456.63
2018-09-08T19:53:24.661Z,98454.53
2018-09-08T19:55:54.015Z,98457.15
2018-09-08T19:58:28.587Z,98454.31
2018-09-08T20:00:57.954Z,98453.92
2018-09-08T20:03:27.391Z,98455.21
2018-09-08T20:05:56.775Z,98461.10
2018-09-08T20:08:26.130Z,98460.64
2018-09-08T20:10:55.643Z,98467.81
2018-09-08T20:13:24.981Z,98465.64
2018-09-08T20:15:54.479Z,98473.41
2018-09-08T20:18:23.874Z,98472.58
2018-09-08T20:20:53.328Z,98471.47
2018-09-08T20:23:22.702Z,98464.80
2018-09-08T20:25:52.076Z,98465.30
2018-09-08T20:28:21.519Z,98462.87
2018-09-08T20:30:50.923Z,98455.26
2018-09-08T20:33:20.322Z,98452.36
2018-09-08T20:35:49.724Z,98452.02
2018-09-08T20:38:19.149Z,98447.41
2018-09-08T20:40:48.543Z,98447.56
2018-09-08T20:43:17.907Z,98443.25
2018-09-08T20:45:47.359Z,98438.09
2018-09-08T20:48:16.756Z,98441.77
2018-09-08T20:50:46.163Z,98445.45
2018-09-08T20:53:15.575Z,98446.91
2018-09-08T20:55:44.969Z,98445.66
2018-09-08T20:58:14.482Z,98450.81
2018-09-08T21:00:43.951Z,98447.06
2018-09-08T21:03:13.356Z,98446.11
2018-09-08T21:05:42.867Z,98446.46
2018-09-08T21:08:12.480Z,98452.88
2018-09-08T21:10:41.860Z,98458.38
2018-09-08T21:13:11.326Z,98453.19
2018-09-08T21:15:40.735Z,98444.17
2018-09-08T21:18:10.422Z,98456.58
2018-09-08T21:20:39.835Z,98459.61
2018-09-08T21:23:09.470Z,98457.98
2018-09-08T21:25:38.935Z,98464.47
2018-09-08T21:28:08.506Z,98465.86
2018-09-08T21:30:37.858Z,98462.44
2018-09-08T21:33:07.537Z,98465.14
2018-09-08T21:35:36.998Z,98458.44
2018-09-08T21:38:06.504Z,98459.35
2018-09-08T21:40:36.052Z,98463.53
2018-09-08T21:43:06.019Z,98455.06
2018-09-08T21:45:35.560Z,98457.09
2018-09-08T21:48:05.145Z,98460.48
2018-09-08T21:50:34.743Z,98458.04
2018-09-08T21:53:04.309Z,98458.98
2018-09-08T21:55:33.965Z,98462.23
2018-09-08T21:58:03.379Z,98459.79
2018-09-08T22:00:32.842Z,98459.39
2018-09-08T22:03:02.416Z,98464.52
2018-09-08T22:05:32.078Z,98462.41
2018-09-08T22:08:01.634Z,98462.63
2018-09-08T22:10:31.383Z,98458.01
2018-09-08T22:13:00.838Z,98457.20
2018-09-08T22:15:30.188Z,98462.77
2018-09-08T22:17:59.647Z,98460.30
2018-09-08T22:20:29.015Z,98465.64
2018-09-08T22:22:58.454Z,98465.05
2018-09-08T22:25:27.815Z,98468.19
2018-09-08T22:27:57.266Z,98467.59
2018-09-08T22:30:26.611Z,98478.53
2018-09-08T22:32:56.239Z,98477.91
2018-09-08T22:35:25.568Z,98476.98
2018-09-08T22:37:54.941Z,98480.66
2018-09-08T22:40:24.366Z,98488.92
2018-09-08T22:42:53.738Z,98480.75
2018-09-08T22:45:23.177Z,98494.02
2018-09-08T22:47:52.579Z,98495.28
2018-09-08T22:50:21.941Z,98499.09
2018-09-08T22:52:51.291Z,98488.94
2018-09-08T22:55:20.784Z,98495.30
2018-09-08T22:57:50.233Z,98491.95
2018-09-08T23:00:19.739Z,98492.78
2018-09-08T23:02:49.117Z,98491.55
2018-09-08T23:05:18.498Z,98488.17
2018-09-08T23:07:47.873Z,98493.22
2018-09-08T23:10:17.308Z,98495.67
2018-09-08T23:12:46.706Z,98493.80
2018-09-08T23:15:16.070Z,98495.88
2018-09-08T23:17:45.483Z,98505.16
2018-09-08T23:20:14.871Z,98507.22
2018-09-08T23:22:44.354Z,98507.19
2018-09-08T23:25:13.718Z,98511.33
2018-09-08T23:27:43.235Z,98508.78
2018-09-08T23:30:12.619Z,98512.66
2018-09-08T23:32:41.994Z,98513.09
2018-09-08T23:35:11.410Z,98513.16
2018-09-08T23:37:40.817Z,98514.91
2018-09-08T23:40:10.828Z,98510.76
2018-09-08T23:42:40.215Z,98514.33
2018-09-08T23:45:09.582Z,98511.48
2018-09-08T23:47:39.043Z,98515.78
2018-09-08T23:50:08.537Z,98520.50
2018-09-08T23:52:38.131Z,98515.71
2018-09-08T23:55:07.562Z,98513.99
2018-09-08T23:57:36.970Z,98502.10
